Time;durP1;ratioP1;P1;durP2;ratioP2;P2;SDS_P1;SDS_P2;PMS_P1;PMS_P2;Temp;Humidity;BMP_temperature;BMP_pressure;BME280_temperature;BME280_humidity;BME280_pressure;Samples;Min_cycle;Max_cycle;Signal;HPM_P1;HPM_P2
2021/12/17 00:00:46;;;;;;;;;;;10.30;99.90;;;;;;5077498;28;19939;-71
2021/12/17 00:03:18;;;;;;;;;;;10.30;99.90;;;;;;5084207;28;19954;-73
2021/12/17 00:06:05;;;;;;;;;;;12.10;99.90;;;;;;5082120;28;19928;-73
2021/12/17 00:08:32;;;;;;;;;;;10.30;99.90;;;;;;5075739;28;19928;-73
2021/12/17 00:10:58;;;;;;;;;;;10.40;99.90;;;;;;5082376;28;20419;-73
2021/12/17 00:13:25;;;;;;;;;;;10.30;99.90;;;;;;5084569;28;20042;-72
2021/12/17 00:15:52;;;;;;;;;;;10.40;99.90;;;;;;5080286;28;20298;-73
2021/12/17 00:18:24;;;;;;;;;;;10.30;99.90;;;;;;5077824;28;19934;-72
2021/12/17 00:48:37;;;;;;;;;;;10.40;99.90;;;;;;5020388;28;20362;-71
2021/12/17 00:51:54;;;;;;;;;;;10.30;99.90;;;;;;5052453;28;19932;-72
2021/12/17 00:54:08;;;;;;;;;;;10.30;99.90;;;;;;5053549;28;20317;-71
2021/12/17 00:56:36;;;;;;;;;;;11.30;99.90;;;;;;5060020;28;19928;-71
2021/12/17 00:59:03;;;;;;;;;;;10.40;99.90;;;;;;5060001;28;19932;-71
2021/12/17 01:01:30;;;;;;;;;;;10.30;99.90;;;;;;5047935;28;19929;-72
2021/12/17 01:03:57;;;;;;;;;;;10.30;99.90;;;;;;5040630;28;19925;-72
2021/12/17 01:06:24;;;;;;;;;;;10.30;99.90;;;;;;5038448;28;19940;-72
2021/12/17 01:08:51;;;;;;;;;;;10.30;99.90;;;;;;5043208;28;20066;-72
2021/12/17 01:11:22;;;;;;;;;;;10.30;99.90;;;;;;5047551;28;19932;-72
2021/12/17 01:14:17;;;;;;;;;;;10.30;99.90;;;;;;5047346;28;19932;-72
2021/12/17 01:17:04;;;;;;;;;;;10.30;99.90;;;;;;5044314;28;20006;-73
2021/12/17 01:22:51;;;;;;;;;;;10.30;99.90;;;;;;5044936;28;20352;-73
2021/12/17 01:25:48;;;;;;;;;;;10.30;99.90;;;;;;5042557;28;19964;-73
2021/12/17 01:41:14;;;;;;;;;;;10.10;99.90;;;;;;5043467;28;20014;-73
2021/12/17 01:43:44;;;;;;;;;;;10.10;99.90;;;;;;5048591;28;19936;-72
2021/12/17 01:46:15;;;;;;;;;;;12.20;99.90;;;;;;5039719;28;19925;-73
2021/12/17 01:48:58;;;;;;;;;;;10.10;99.90;;;;;;5061609;28;19935;-72
2021/12/17 01:57:00;;;;;;;;;;;10.10;99.90;;;;;;5088648;28;19928;-72
2021/12/17 01:59:34;;;;;;;;;;;10.00;99.90;;;;;;5102747;28;19928;-72
2021/12/17 02:02:05;;;;;;;;;;;10.10;99.90;;;;;;5086796;28;19936;-73
2021/12/17 02:04:32;;;;;;;;;;;10.10;99.90;;;;;;5085912;28;19990;-73
2021/12/17 02:07:00;;;;;;;;;;;10.00;99.90;;;;;;5086353;28;20251;-73
2021/12/17 02:10:12;;;;;;;;;;;10.00;99.90;;;;;;5077606;28;20026;-73
2021/12/17 02:12:46;;;;;;;;;;;10.00;99.90;;;;;;5070521;28;19982;-72
2021/12/17 02:29:40;;;;;;;;;;;10.10;99.90;;;;;;5065373;28;19928;-72
2021/12/17 02:32:08;;;;;;;;;;;10.10;99.90;;;;;;5100705;28;19993;-72
2021/12/17 02:34:54;;;;;;;;;;;10.10;99.90;;;;;;5086192;28;19939;-71
2021/12/17 02:37:25;;;;;;;;;;;10.10;99.90;;;;;;5084912;28;19928;-72
2021/12/17 02:42:29;;;;;;;;;;;10.10;99.90;;;;;;5070643;28;19932;-72
2021/12/17 02:46:12;;;;;;;;;;;10.10;99.90;;;;;;5085736;28;19942;-72
2021/12/17 02:48:40;;;;;;;;;;;10.10;99.90;;;;;;5085987;28;19930;-72
2021/12/17 02:51:07;;;;;;;;;;;10.20;99.90;;;;;;5083376;28;19939;-72
2021/12/17 02:53:36;;;;;;;;;;;10.20;99.90;;;;;;5082945;28;19924;-72
2021/12/17 02:56:04;;;;;;;;;;;10.20;99.90;;;;;;5086057;28;19935;-72
2021/12/17 02:58:31;;;;;;;;;;;10.20;99.90;;;;;;5086043;28;19928;-73
2021/12/17 03:00:59;;;;;;;;;;;10.20;99.90;;;;;;5078806;28;20002;-73
2021/12/17 03:03:27;;;;;;;;;;;10.20;99.90;;;;;;5085513;28;20017;-72
2021/12/17 03:05:54;;;;;;;;;;;10.20;99.90;;;;;;5078974;28;20372;-72
2021/12/17 03:08:21;;;;;;;;;;;11.50;99.90;;;;;;5086946;28;19932;-72
2021/12/17 03:10:50;;;;;;;;;;;10.20;99.90;;;;;;5082476;28;20134;-72
2021/12/17 03:13:18;;;;;;;;;;;10.10;99.90;;;;;;5084577;28;19943;-72
2021/12/17 03:15:49;;;;;;;;;;;10.10;99.90;;;;;;5085594;28;19970;-72
2021/12/17 03:18:56;;;;;;;;;;;10.00;99.90;;;;;;5085044;28;20014;-72
2021/12/17 03:24:07;;;;;;;;;;;10.00;99.90;;;;;;5084581;28;19966;-73
2021/12/17 03:26:35;;;;;;;;;;;10.00;99.90;;;;;;5086998;28;19932;-73
2021/12/17 03:29:04;;;;;;;;;;;10.00;99.90;;;;;;5085479;28;19997;-72
2021/12/17 03:31:30;;;;;;;;;;;10.10;99.90;;;;;;5085797;28;19928;-72
2021/12/17 03:34:12;;;;;;;;;;;10.10;99.90;;;;;;5085503;28;19946;-72
2021/12/17 03:36:39;;;;;;;;;;;10.10;99.90;;;;;;5080441;28;19924;-72
2021/12/17 03:39:06;;;;;;;;;;;10.20;99.90;;;;;;5085516;28;20047;-72
2021/12/17 03:41:37;;;;;;;;;;;10.20;99.90;;;;;;5087686;28;19934;-72
2021/12/17 03:44:07;;;;;;;;;;;10.20;99.90;;;;;;5087208;28;20297;-72
2021/12/17 03:47:00;;;;;;;;;;;10.20;99.90;;;;;;5074851;28;19931;-72
2021/12/17 03:49:28;;;;;;;;;;;10.20;99.90;;;;;;5077240;28;19928;-72
2021/12/17 03:52:04;;;;;;;;;;;10.20;99.90;;;;;;5081136;28;20255;-73
2021/12/17 03:54:33;;;;;;;;;;;10.20;99.90;;;;;;5082156;28;19934;-73
2021/12/17 03:57:01;;;;;;;;;;;10.20;99.90;;;;;;5082994;28;19975;-72
2021/12/17 03:59:30;;;;;;;;;;;10.20;99.90;;;;;;5085664;28;19939;-73
2021/12/17 04:01:57;;;;;;;;;;;10.20;99.90;;;;;;5085497;28;19928;-73
2021/12/17 04:04:25;;;;;;;;;;;10.20;99.90;;;;;;5077927;28;20404;-73
2021/12/17 04:07:09;;;;;;;;;;;10.20;99.90;;;;;;5084065;28;19963;-73
2021/12/17 04:09:53;;;;;;;;;;;10.20;99.90;;;;;;5085045;28;19947;-73
2021/12/17 04:12:27;;;;;;;;;;;10.20;99.90;;;;;;5084544;28;19989;-73
2021/12/17 04:15:13;;;;;;;;;;;10.20;99.90;;;;;;5075301;28;19931;-73
2021/12/17 04:17:43;;;;;;;;;;;10.20;99.90;;;;;;5079047;28;19924;-73
2021/12/17 04:20:10;;;;;;;;;;;10.10;99.90;;;;;;5084230;28;19973;-73
2021/12/17 04:22:37;;;;;;;;;;;10.10;99.90;;;;;;5079981;28;19933;-73
2021/12/17 04:25:04;;;;;;;;;;;10.10;99.90;;;;;;5082905;28;19924;-73
2021/12/17 04:27:31;;;;;;;;;;;10.10;99.90;;;;;;5101541;28;19981;-73
2021/12/17 04:29:58;;;;;;;;;;;10.10;99.90;;;;;;5083821;28;19931;-73
2021/12/17 04:32:26;;;;;;;;;;;10.10;99.90;;;;;;5082715;28;20387;-73
2021/12/17 04:34:53;;;;;;;;;;;10.10;99.90;;;;;;5083833;28;19996;-73
2021/12/17 04:37:25;;;;;;;;;;;10.10;99.90;;;;;;5088339;28;19934;-72
2021/12/17 04:39:58;;;;;;;;;;;10.10;99.90;;;;;;5087780;28;19975;-73
2021/12/17 04:42:35;;;;;;;;;;;10.10;99.90;;;;;;5085813;28;19932;-72
2021/12/17 04:45:05;;;;;;;;;;;10.10;99.90;;;;;;5087105;28;19924;-73
2021/12/17 04:58:37;;;;;;;;;;;10.10;99.90;;;;;;5082138;28;19932;-73
2021/12/17 05:01:10;;;;;;;;;;;10.10;99.90;;;;;;5077169;28;19924;-73
2021/12/17 05:03:39;;;;;;;;;;;10.10;99.90;;;;;;5086993;28;19974;-73
2021/12/17 05:06:06;;;;;;;;;;;10.10;99.90;;;;;;5086939;28;21255;-73
2021/12/17 05:08:43;;;;;;;;;;;10.00;99.90;;;;;;5079330;28;19932;-73
2021/12/17 05:11:25;;;;;;;;;;;10.00;99.90;;;;;;5081941;28;19951;-73
2021/12/17 05:19:45;;;;;;;;;;;10.10;99.90;;;;;;5046146;28;19927;-73
2021/12/17 05:22:13;;;;;;;;;;;10.10;99.90;;;;;;5087260;28;19928;-73
2021/12/17 05:24:41;;;;;;;;;;;10.10;99.90;;;;;;5087866;28;19981;-72
2021/12/17 05:27:08;;;;;;;;;;;10.10;99.90;;;;;;5086306;28;20290;-72
2021/12/17 05:29:43;;;;;;;;;;;10.10;99.90;;;;;;5087570;28;20361;-72
2021/12/17 05:32:10;;;;;;;;;;;10.10;99.90;;;;;;5083158;28;19928;-72
2021/12/17 05:34:38;;;;;;;;;;;10.10;99.90;;;;;;5087921;28;19956;-72
2021/12/17 05:37:09;;;;;;;;;;;10.10;99.90;;;;;;5086169;28;20289;-72
2021/12/17 05:39:36;;;;;;;;;;;10.10;99.90;;;;;;5077517;28;19928;-72
2021/12/17 05:42:05;;;;;;;;;;;10.00;99.90;;;;;;5100591;28;19930;-72
2021/12/17 05:44:51;;;;;;;;;;;10.00;99.90;;;;;;5078506;28;20386;-72
2021/12/17 05:47:17;;;;;;;;;;;10.00;99.90;;;;;;5081887;28;19932;-72
2021/12/17 05:49:45;;;;;;;;;;;10.30;99.90;;;;;;5075434;28;20017;-72
2021/12/17 05:52:12;;;;;;;;;;;10.00;99.90;;;;;;5065899;28;19932;-72
2021/12/17 05:54:39;;;;;;;;;;;10.00;99.90;;;;;;5080043;28;20354;-73
2021/12/17 05:57:06;;;;;;;;;;;9.90;99.90;;;;;;5086752;28;19973;-72
2021/12/17 05:59:36;;;;;;;;;;;9.80;99.90;;;;;;5088832;28;19928;-72
2021/12/17 06:02:10;;;;;;;;;;;9.70;99.90;;;;;;5092306;28;19928;-72
2021/12/17 06:04:40;;;;;;;;;;;9.60;99.90;;;;;;5089032;28;19985;-72
2021/12/17 06:07:08;;;;;;;;;;;9.50;99.90;;;;;;5080211;28;19928;-73
2021/12/17 06:09:38;;;;;;;;;;;9.50;99.90;;;;;;5087434;28;19928;-72
2021/12/17 06:12:09;;;;;;;;;;;9.50;99.90;;;;;;5086030;28;19979;-73
2021/12/17 06:14:38;;;;;;;;;;;9.60;99.90;;;;;;5087440;28;19932;-72
2021/12/17 06:17:06;;;;;;;;;;;9.60;99.90;;;;;;5086000;28;19924;-73
2021/12/17 06:19:40;;;;;;;;;;;9.60;99.90;;;;;;5085102;28;19934;-73
2021/12/17 06:22:08;;;;;;;;;;;9.60;99.90;;;;;;5084972;28;19932;-73
2021/12/17 06:24:37;;;;;;;;;;;9.60;99.90;;;;;;5087084;28;20008;-73
2021/12/17 06:27:04;;;;;;;;;;;9.60;99.90;;;;;;5086084;28;20385;-72
2021/12/17 06:29:31;;;;;;;;;;;9.10;99.90;;;;;;5085957;28;19928;-72
2021/12/17 06:32:04;;;;;;;;;;;9.70;99.90;;;;;;5084198;28;20011;-73
2021/12/17 06:34:31;;;;;;;;;;;9.70;99.90;;;;;;5084908;28;19959;-73
2021/12/17 06:36:58;;;;;;;;;;;9.70;99.90;;;;;;5087047;28;19966;-73
2021/12/17 06:39:26;;;;;;;;;;;9.70;99.90;;;;;;5086386;28;19981;-73
2021/12/17 06:41:53;;;;;;;;;;;9.70;99.90;;;;;;5087390;28;19954;-73
2021/12/17 06:44:23;;;;;;;;;;;9.60;99.90;;;;;;5086893;28;19939;-73
2021/12/17 06:46:57;;;;;;;;;;;9.60;99.90;;;;;;5075516;28;19932;-73
2021/12/17 06:49:29;;;;;;;;;;;9.60;99.90;;;;;;5075535;28;20149;-73
2021/12/17 06:55:33;;;;;;;;;;;9.50;99.90;;;;;;5085489;28;19920;-73
2021/12/17 07:05:54;;;;;;;;;;;9.40;99.90;;;;;;5086201;28;20906;-73
2021/12/17 07:11:15;;;;;;;;;;;9.30;99.90;;;;;;4998873;28;19991;-73
2021/12/17 07:20:16;;;;;;;;;;;9.30;99.90;;;;;;5075373;28;20776;-73
2021/12/17 07:22:29;;;;;;;;;;;9.30;99.90;;;;;;5085604;28;19959;-73
2021/12/17 07:28:14;;;;;;;;;;;9.20;99.90;;;;;;5086103;28;19924;-73
2021/12/17 07:33:39;;;;;;;;;;;9.20;99.90;;;;;;5075837;28;19928;-71
2021/12/17 07:36:26;;;;;;;;;;;9.20;99.90;;;;;;5067685;28;19938;-72
2021/12/17 07:38:59;;;;;;;;;;;9.20;99.90;;;;;;5072383;28;19939;-73
2021/12/17 07:41:49;;;;;;;;;;;9.20;99.90;;;;;;5083117;28;19931;-73
2021/12/17 07:44:43;;;;;;;;;;;9.20;99.90;;;;;;5067556;28;20155;-73
2021/12/17 07:47:34;;;;;;;;;;;9.20;99.90;;;;;;5076629;28;19932;-72
2021/12/17 07:50:12;;;;;;;;;;;9.20;99.90;;;;;;5076038;28;19932;-70
2021/12/17 07:53:00;;;;;;;;;;;9.20;99.90;;;;;;5077209;28;19932;-71
2021/12/17 07:55:30;;;;;;;;;;;9.20;99.90;;;;;;5068356;28;20360;-71
2021/12/17 07:57:57;;;;;;;;;;;9.20;99.90;;;;;;5074077;28;20677;-71
2021/12/17 08:00:33;;;;;;;;;;;9.20;99.90;;;;;;5078442;28;20011;-73
2021/12/17 08:03:03;;;;;;;;;;;9.20;99.90;;;;;;5081111;28;19935;-74
2021/12/17 08:05:56;;;;;;;;;;;9.20;99.90;;;;;;5082190;28;19928;-75
2021/12/17 08:08:24;;;;;;;;;;;9.20;99.90;;;;;;5077343;28;19928;-75
2021/12/17 08:11:00;;;;;;;;;;;9.30;99.90;;;;;;5082594;28;19977;-74
2021/12/17 08:13:30;;;;;;;;;;;9.30;99.90;;;;;;5088552;28;20381;-75
2021/12/17 08:16:10;;;;;;;;;;;9.30;99.90;;;;;;5095265;28;19928;-76
2021/12/17 08:19:06;;;;;;;;;;;9.30;99.90;;;;;;5087431;28;19928;-75
2021/12/17 08:24:46;;;;;;;;;;;9.20;99.90;;;;;;5096456;28;20379;-74
2021/12/17 08:27:27;;;;;;;;;;;9.20;99.90;;;;;;5089213;28;19925;-75
2021/12/17 08:30:09;;;;;;;;;;;9.20;99.90;;;;;;5086193;28;19928;-75
2021/12/17 08:32:41;;;;;;;;;;;9.20;99.90;;;;;;5076849;28;19932;-76
2021/12/17 08:35:08;;;;;;;;;;;9.20;99.90;;;;;;5075912;28;19934;-75
2021/12/17 08:37:35;;;;;;;;;;;9.30;99.90;;;;;;5093933;28;19993;-75
2021/12/17 08:40:05;;;;;;;;;;;9.30;99.90;;;;;;5075329;28;20023;-75
2021/12/17 08:42:38;;;;;;;;;;;9.30;99.90;;;;;;5081016;28;20393;-76
2021/12/17 08:45:08;;;;;;;;;;;9.30;99.90;;;;;;5076850;28;20365;-76
2021/12/17 08:48:02;;;;;;;;;;;9.30;99.90;;;;;;5078074;28;20304;-76
2021/12/17 08:50:38;;;;;;;;;;;9.30;99.90;;;;;;5077530;28;20057;-74
2021/12/17 08:53:09;;;;;;;;;;;9.40;99.90;;;;;;5078210;28;19932;-75
2021/12/17 08:55:36;;;;;;;;;;;9.30;99.90;;;;;;5078040;28;20393;-75
2021/12/17 08:58:04;;;;;;;;;;;9.30;99.90;;;;;;5084889;28;19938;-75
2021/12/17 09:00:32;;;;;;;;;;;9.40;99.90;;;;;;5079283;28;19928;-74
2021/12/17 09:03:03;;;;;;;;;;;9.50;99.90;;;;;;5086627;28;19932;-76
2021/12/17 09:05:59;;;;;;;;;;;9.50;99.90;;;;;;5081704;28;19924;-75
2021/12/17 09:08:32;;;;;;;;;;;9.50;99.90;;;;;;5088602;28;19932;-75
2021/12/17 09:11:00;;;;;;;;;;;9.40;99.90;;;;;;5088591;28;19932;-75
2021/12/17 09:13:48;;;;;;;;;;;9.90;99.90;;;;;;5088467;28;19928;-74
2021/12/17 09:16:15;;;;;;;;;;;9.40;99.90;;;;;;5085451;28;20239;-73
2021/12/17 09:18:45;;;;;;;;;;;9.50;99.90;;;;;;5086707;28;19928;-72
2021/12/17 09:21:23;;;;;;;;;;;9.70;99.90;;;;;;5084642;28;19924;-75
2021/12/17 09:23:59;;;;;;;;;;;9.70;99.90;;;;;;5082111;28;19964;-74
2021/12/17 09:26:32;;;;;;;;;;;9.70;99.90;;;;;;5083460;28;20638;-75
2021/12/17 09:28:59;;;;;;;;;;;9.80;99.90;;;;;;5084154;28;19943;-74
2021/12/17 09:31:25;;;;;;;;;;;9.90;99.90;;;;;;5080322;28;19924;-75
2021/12/17 09:33:54;;;;;;;;;;;9.90;99.90;;;;;;5089561;28;19936;-78
2021/12/17 09:36:22;;;;;;;;;;;9.90;99.90;;;;;;5084953;28;19958;-77
2021/12/17 09:38:52;;;;;;;;;;;9.80;99.90;;;;;;5088948;28;19928;-77
2021/12/17 09:41:19;;;;;;;;;;;9.80;99.90;;;;;;5082324;28;19936;-78
2021/12/17 09:43:46;;;;;;;;;;;9.80;99.90;;;;;;5085090;28;19928;-76
2021/12/17 09:46:14;;;;;;;;;;;9.80;99.90;;;;;;5082621;28;20020;-75
2021/12/17 09:48:41;;;;;;;;;;;9.80;99.90;;;;;;5085235;28;20023;-75
2021/12/17 09:51:09;;;;;;;;;;;9.90;99.90;;;;;;5089834;28;20041;-75
2021/12/17 09:53:37;;;;;;;;;;;9.90;99.90;;;;;;5088871;28;19983;-74
2021/12/17 09:56:04;;;;;;;;;;;9.90;99.90;;;;;;5090486;28;19932;-74
2021/12/17 09:58:31;;;;;;;;;;;10.10;99.90;;;;;;5092071;28;19946;-78
2021/12/17 10:00:58;;;;;;;;;;;;;;;;;;5091429;28;20378;-74
2021/12/17 10:03:25;;;;;;;;;;;10.20;99.90;;;;;;5090214;28;19944;-74
2021/12/17 10:05:53;;;;;;;;;;;10.30;99.90;;;;;;5087649;28;20019;-75
2021/12/17 10:08:22;;;;;;;;;;;10.30;99.90;;;;;;5089062;28;20036;-75
2021/12/17 10:10:50;;;;;;;;;;;10.30;99.90;;;;;;5087981;28;20385;-73
2021/12/17 10:13:20;;;;;;;;;;;10.30;99.90;;;;;;5100600;27;20070;-74
2021/12/17 10:15:48;;;;;;;;;;;10.30;99.90;;;;;;5084264;28;19997;-72
2021/12/17 10:18:15;;;;;;;;;;;10.30;99.90;;;;;;5089550;28;19935;-74
2021/12/17 10:20:43;;;;;;;;;;;10.30;99.90;;;;;;5089358;28;19936;-73
2021/12/17 10:23:11;;;;;;;;;;;10.30;99.90;;;;;;5078503;28;20401;-75
2021/12/17 10:25:43;;;;;;;;;;;10.30;99.90;;;;;;5086286;28;19924;-74
2021/12/17 10:28:10;;;;;;;;;;;10.30;99.90;;;;;;5081417;28;20242;-74
2021/12/17 10:30:38;;;;;;;;;;;10.30;99.90;;;;;;5088748;28;19938;-76
2021/12/17 10:33:06;;;;;;;;;;;10.30;99.90;;;;;;5081204;28;19928;-76
2021/12/17 10:35:34;;;;;;;;;;;11.10;99.90;;;;;;5086706;28;19935;-76
2021/12/17 10:38:03;;;;;;;;;;;10.30;99.90;;;;;;5076412;28;19932;-77
2021/12/17 10:40:32;;;;;;;;;;;10.50;99.90;;;;;;5085726;28;19936;-73
2021/12/17 10:43:04;;;;;;;;;;;10.50;99.90;;;;;;5086134;28;20519;-75
2021/12/17 10:45:34;;;;;;;;;;;10.50;99.90;;;;;;5082347;28;20582;-73
2021/12/17 10:48:21;;;;;;;;;;;10.50;99.90;;;;;;5082319;28;19932;-72
2021/12/17 10:50:48;;;;;;;;;;;10.50;99.90;;;;;;5085507;28;19932;-72
2021/12/17 10:53:16;;;;;;;;;;;10.40;99.90;;;;;;5087759;28;19924;-76
2021/12/17 10:55:44;;;;;;;;;;;10.40;99.90;;;;;;5087047;28;20491;-70
2021/12/17 10:58:16;;;;;;;;;;;10.30;99.90;;;;;;5083681;28;19929;-70
2021/12/17 11:00:46;;;;;;;;;;;10.30;99.90;;;;;;5089896;28;19931;-71
2021/12/17 11:03:13;;;;;;;;;;;10.40;99.90;;;;;;5083804;28;19924;-72
2021/12/17 11:05:40;;;;;;;;;;;10.40;99.90;;;;;;5082193;28;19950;-73
2021/12/17 11:08:19;;;;;;;;;;;10.50;99.90;;;;;;5086497;28;19935;-71
2021/12/17 11:10:55;;;;;;;;;;;10.50;99.90;;;;;;5082053;28;20414;-72
2021/12/17 11:13:24;;;;;;;;;;;10.50;99.90;;;;;;5086667;28;19932;-74
2021/12/17 11:15:51;;;;;;;;;;;10.50;99.90;;;;;;5087160;28;19928;-73
2021/12/17 11:18:19;;;;;;;;;;;10.50;99.90;;;;;;5086098;28;19928;-71
2021/12/17 11:20:47;;;;;;;;;;;10.60;99.90;;;;;;5084676;28;20782;-71
2021/12/17 11:23:16;;;;;;;;;;;10.60;99.90;;;;;;5086438;28;19928;-71
2021/12/17 11:25:44;;;;;;;;;;;10.70;99.90;;;;;;5087062;28;19986;-72
2021/12/17 11:28:11;;;;;;;;;;;10.40;99.90;;;;;;5079255;28;19932;-71
2021/12/17 11:30:41;;;;;;;;;;;10.60;99.90;;;;;;5085866;28;19956;-72
2021/12/17 11:33:08;;;;;;;;;;;10.60;99.90;;;;;;5078384;28;20643;-73
2021/12/17 11:35:36;;;;;;;;;;;10.60;99.90;;;;;;5087075;28;19954;-71
2021/12/17 11:38:05;;;;;;;;;;;10.60;99.90;;;;;;5086145;28;19924;-73
2021/12/17 11:40:34;;;;;;;;;;;10.50;99.90;;;;;;5086832;28;19951;-72
2021/12/17 11:43:15;;;;;;;;;;;10.60;99.90;;;;;;5086847;28;19931;-72
2021/12/17 11:45:44;;;;;;;;;;;10.60;99.90;;;;;;5084957;28;19928;-73
2021/12/17 11:48:13;;;;;;;;;;;10.30;99.90;;;;;;5084367;28;19928;-73
2021/12/17 11:50:40;;;;;;;;;;;10.70;99.90;;;;;;5085048;28;19936;-73
2021/12/17 11:53:16;;;;;;;;;;;10.80;99.90;;;;;;5084421;28;20043;-73
2021/12/17 11:55:45;;;;;;;;;;;10.80;99.90;;;;;;5085653;28;20393;-74
2021/12/17 11:58:15;;;;;;;;;;;10.90;99.90;;;;;;5085164;28;20598;-74
2021/12/17 12:00:51;;;;;;;;;;;10.90;99.90;;;;;;5085971;28;20291;-73
2021/12/17 12:03:25;;;;;;;;;;;10.90;99.90;;;;;;5077437;28;20559;-76
2021/12/17 12:06:00;;;;;;;;;;;11.30;99.90;;;;;;5079691;28;20417;-74
2021/12/17 12:08:31;;;;;;;;;;;11.00;99.90;;;;;;5077393;28;19936;-73
2021/12/17 12:11:09;;;;;;;;;;;12.20;99.90;;;;;;5076285;28;20400;-74
2021/12/17 12:13:37;;;;;;;;;;;10.90;99.90;;;;;;5075225;28;19928;-73
2021/12/17 12:16:06;;;;;;;;;;;10.80;99.90;;;;;;5078995;28;19935;-73
2021/12/17 12:18:47;;;;;;;;;;;10.80;99.90;;;;;;5081516;28;20357;-73
2021/12/17 12:21:16;;;;;;;;;;;10.70;99.90;;;;;;5080323;28;19933;-73
2021/12/17 12:24:00;;;;;;;;;;;10.60;99.90;;;;;;5083085;28;19932;-73
2021/12/17 12:26:29;;;;;;;;;;;10.60;99.90;;;;;;5078669;28;19928;-73
2021/12/17 12:29:02;;;;;;;;;;;10.60;99.90;;;;;;5082495;28;19932;-72
2021/12/17 12:31:56;;;;;;;;;;;10.60;99.90;;;;;;5079386;28;20007;-73
2021/12/17 12:34:30;;;;;;;;;;;10.60;99.90;;;;;;5079455;28;19971;-73
2021/12/17 12:36:58;;;;;;;;;;;12.60;99.90;;;;;;5082053;28;19928;-73
2021/12/17 12:39:26;;;;;;;;;;;12.20;99.90;;;;;;5083546;28;19928;-73
2021/12/17 12:42:02;;;;;;;;;;;10.70;99.90;;;;;;5083685;28;19932;-73
2021/12/17 12:44:48;;;;;;;;;;;10.80;99.90;;;;;;5086065;28;19924;-71
2021/12/17 12:47:16;;;;;;;;;;;10.80;99.90;;;;;;5080799;28;19932;-71
2021/12/17 12:49:44;;;;;;;;;;;10.90;99.90;;;;;;5076347;28;20404;-72
2021/12/17 12:52:15;;;;;;;;;;;12.70;99.90;;;;;;5078491;28;20161;-71
2021/12/17 12:54:42;;;;;;;;;;;10.90;99.90;;;;;;5081547;28;19928;-72
2021/12/17 12:57:09;;;;;;;;;;;10.80;99.90;;;;;;5084838;28;19935;-72
2021/12/17 12:59:36;;;;;;;;;;;10.80;99.90;;;;;;5086096;28;19932;-72
2021/12/17 13:02:03;;;;;;;;;;;10.70;99.90;;;;;;5087006;28;20356;-71
2021/12/17 13:04:30;;;;;;;;;;;10.60;99.90;;;;;;5089022;28;19928;-71
2021/12/17 13:06:59;;;;;;;;;;;10.60;99.90;;;;;;5087665;28;19924;-71
2021/12/17 13:09:29;;;;;;;;;;;10.70;99.90;;;;;;5084804;28;19932;-72
2021/12/17 13:11:57;;;;;;;;;;;10.70;99.90;;;;;;5090694;28;19953;-72
2021/12/17 13:14:26;;;;;;;;;;;10.70;99.90;;;;;;5084163;28;19928;-71
2021/12/17 13:17:17;;;;;;;;;;;10.70;99.90;;;;;;5087498;28;20019;-71
2021/12/17 13:20:29;;;;;;;;;;;10.60;99.90;;;;;;5083667;28;20492;-72
2021/12/17 13:22:58;;;;;;;;;;;10.50;99.90;;;;;;5083990;28;19924;-71
2021/12/17 13:25:25;;;;;;;;;;;10.50;99.90;;;;;;5089157;28;19928;-71
2021/12/17 13:27:52;;;;;;;;;;;10.40;99.90;;;;;;5083748;28;19929;-72
2021/12/17 13:30:23;;;;;;;;;;;10.30;99.90;;;;;;5084415;28;19929;-72
2021/12/17 13:32:51;;;;;;;;;;;10.20;99.90;;;;;;5080997;28;19928;-72
2021/12/17 13:35:18;;;;;;;;;;;10.10;99.90;;;;;;5082399;28;19975;-72
2021/12/17 13:37:45;;;;;;;;;;;10.10;99.90;;;;;;5083098;28;20296;-72
2021/12/17 13:40:13;;;;;;;;;;;10.10;99.90;;;;;;5085316;28;19928;-71
2021/12/17 13:42:42;;;;;;;;;;;10.10;99.90;;;;;;5083002;28;19928;-72
2021/12/17 13:45:10;;;;;;;;;;;10.10;99.90;;;;;;5086211;28;20308;-72
2021/12/17 13:47:37;;;;;;;;;;;10.10;99.90;;;;;;5082641;28;19989;-72
2021/12/17 13:50:07;;;;;;;;;;;10.10;99.90;;;;;;5084553;28;20015;-71
2021/12/17 13:52:35;;;;;;;;;;;10.10;99.90;;;;;;5084275;28;20409;-72
2021/12/17 13:55:04;;;;;;;;;;;10.10;99.90;;;;;;5084900;28;19938;-71
2021/12/17 13:57:33;;;;;;;;;;;10.10;99.90;;;;;;5086430;28;19934;-71
2021/12/17 14:00:06;;;;;;;;;;;10.10;99.90;;;;;;5084746;28;19932;-72
2021/12/17 14:02:40;;;;;;;;;;;10.10;99.90;;;;;;5080791;28;19924;-72
2021/12/17 14:05:08;;;;;;;;;;;10.10;99.90;;;;;;5082991;28;19927;-72
2021/12/17 14:07:37;;;;;;;;;;;10.10;99.90;;;;;;5081762;28;19927;-72
2021/12/17 14:10:06;;;;;;;;;;;10.10;99.90;;;;;;5083175;28;19928;-72
2021/12/17 14:12:38;;;;;;;;;;;10.20;99.90;;;;;;5086846;28;20384;-72
2021/12/17 14:15:06;;;;;;;;;;;10.20;99.90;;;;;;5085185;28;19971;-72
2021/12/17 14:17:34;;;;;;;;;;;10.30;99.90;;;;;;5086323;28;19951;-72
2021/12/17 14:20:04;;;;;;;;;;;10.30;99.90;;;;;;5087116;28;20333;-73
2021/12/17 14:22:33;;;;;;;;;;;10.20;99.90;;;;;;5086590;28;19932;-72
2021/12/17 14:25:00;;;;;;;;;;;10.20;99.90;;;;;;5087414;28;20027;-72
2021/12/17 14:27:44;;;;;;;;;;;10.10;99.90;;;;;;5086694;28;19928;-72
2021/12/17 14:30:11;;;;;;;;;;;10.10;99.90;;;;;;5082936;28;19951;-71
2021/12/17 14:32:42;;;;;;;;;;;10.10;99.90;;;;;;5082183;28;19947;-72
2021/12/17 14:35:09;;;;;;;;;;;10.00;99.90;;;;;;5084360;28;19960;-72
2021/12/17 14:37:49;;;;;;;;;;;10.00;99.90;;;;;;5085311;28;19928;-72
2021/12/17 14:40:28;;;;;;;;;;;10.00;99.90;;;;;;5086542;28;20305;-72
2021/12/17 14:42:57;;;;;;;;;;;9.90;99.90;;;;;;5080752;28;20253;-72
2021/12/17 14:45:32;;;;;;;;;;;9.90;99.90;;;;;;5078579;28;19928;-72
2021/12/17 14:48:13;;;;;;;;;;;9.90;99.90;;;;;;5084065;28;20018;-72
2021/12/17 15:02:10;;;;;;;;;;;9.70;99.90;;;;;;5071896;28;19986;-73
2021/12/17 15:04:37;;;;;;;;;;;10.40;99.90;;;;;;5073445;28;20424;-73
2021/12/17 15:07:05;;;;;;;;;;;9.70;99.90;;;;;;5074832;28;19979;-72
2021/12/17 15:09:32;;;;;;;;;;;9.70;99.90;;;;;;5072893;28;19932;-72
2021/12/17 15:12:01;;;;;;;;;;;9.60;99.90;;;;;;5073289;28;20325;-73
2021/12/17 15:14:29;;;;;;;;;;;9.60;99.90;;;;;;5083721;28;20074;-72
2021/12/17 15:16:56;;;;;;;;;;;9.60;99.90;;;;;;5072582;28;20436;-72
2021/12/17 15:19:22;;;;;;;;;;;9.60;99.90;;;;;;5075975;28;19932;-72
2021/12/17 15:21:49;;;;;;;;;;;9.70;99.90;;;;;;5076213;28;19940;-71
2021/12/17 15:24:16;;;;;;;;;;;9.70;99.90;;;;;;5071754;28;19932;-71
2021/12/17 15:26:43;;;;;;;;;;;9.60;99.90;;;;;;5075071;28;20050;-72
2021/12/17 15:29:09;;;;;;;;;;;9.60;99.90;;;;;;5076095;28;20436;-72
2021/12/17 15:31:37;;;;;;;;;;;9.60;99.90;;;;;;5073227;28;20114;-72
2021/12/17 15:34:04;;;;;;;;;;;9.60;99.90;;;;;;5067399;28;19973;-70
2021/12/17 15:36:31;;;;;;;;;;;11.90;99.90;;;;;;5075185;28;20305;-71
2021/12/17 15:38:58;;;;;;;;;;;9.70;99.90;;;;;;5077570;28;19939;-70
2021/12/17 15:41:24;;;;;;;;;;;9.70;99.90;;;;;;5074320;28;20283;-70
2021/12/17 15:43:51;;;;;;;;;;;10.30;99.90;;;;;;5077725;28;19943;-71
2021/12/17 15:46:18;;;;;;;;;;;9.70;99.90;;;;;;5074524;28;20405;-70
2021/12/17 15:48:46;;;;;;;;;;;9.70;99.90;;;;;;5077325;28;19939;-71
2021/12/17 15:51:13;;;;;;;;;;;9.80;99.90;;;;;;5081378;28;19935;-71
2021/12/17 15:53:39;;;;;;;;;;;9.80;99.90;;;;;;5073264;28;19932;-71
2021/12/17 15:56:06;;;;;;;;;;;9.70;99.90;;;;;;5069769;28;20757;-71
2021/12/17 15:58:33;;;;;;;;;;;9.80;99.90;;;;;;5076750;28;19950;-71
2021/12/17 16:01:01;;;;;;;;;;;9.70;99.90;;;;;;5077793;28;19969;-72
2021/12/17 16:03:31;;;;;;;;;;;9.70;99.90;;;;;;5077993;28;19932;-72
2021/12/17 16:06:01;;;;;;;;;;;11.70;99.90;;;;;;5076456;28;19924;-72
2021/12/17 16:08:28;;;;;;;;;;;9.60;99.90;;;;;;5074386;28;19928;-71
2021/12/17 16:22:16;;;;;;;;;;;9.60;99.90;;;;;;4996647;28;20494;-71
2021/12/17 16:24:43;;;;;;;;;;;9.60;99.90;;;;;;5014307;28;19929;-71
2021/12/17 16:27:10;;;;;;;;;;;9.60;99.90;;;;;;5036289;28;19939;-71
2021/12/17 16:29:37;;;;;;;;;;;9.60;99.90;;;;;;5070087;28;19932;-71
2021/12/17 16:32:04;;;;;;;;;;;9.60;99.90;;;;;;5081495;28;19975;-71
2021/12/17 16:34:31;;;;;;;;;;;9.60;99.90;;;;;;5076855;28;19955;-72
2021/12/17 16:36:58;;;;;;;;;;;9.50;99.90;;;;;;5079152;28;19932;-71
2021/12/17 16:39:26;;;;;;;;;;;8.00;99.90;;;;;;5089288;28;20605;-70
2021/12/17 16:41:54;;;;;;;;;;;9.50;99.90;;;;;;5089868;28;19928;-70
2021/12/17 16:44:36;;;;;;;;;;;9.50;99.90;;;;;;5085456;28;20321;-70
2021/12/17 16:47:02;;;;;;;;;;;9.40;99.90;;;;;;5079264;28;19943;-71
2021/12/17 16:49:33;;;;;;;;;;;9.40;99.90;;;;;;5078343;28;20296;-72
2021/12/17 16:52:00;;;;;;;;;;;9.30;99.90;;;;;;5082461;28;19936;-70
2021/12/17 16:54:28;;;;;;;;;;;9.20;99.90;;;;;;5079820;28;20028;-70
2021/12/17 16:56:55;;;;;;;;;;;10.20;99.90;;;;;;5079096;28;20325;-72
2021/12/17 16:59:22;;;;;;;;;;;8.20;99.90;;;;;;5081419;28;19928;-72
2021/12/17 17:01:48;;;;;;;;;;;9.00;99.90;;;;;;5088204;28;19935;-71
2021/12/17 17:04:15;;;;;;;;;;;9.00;99.90;;;;;;5091926;28;19931;-70